KHKS/HKS METAR and TAF weather

Enter ICAO airport designator
Station Type Date Time Source
KHKS METAR 2020/09/21 05:53 UTC NOAA

KHKS 210553Z AUTO 09009G16KT 10SM OVC050 22/13 A3013 RMK AO2 SLP197 T02220133 10250 20222 402830183 58003 $


Station Type Date Time Source
KHKS Decoded METAR 2020/09/21 05:53 UTC NOAA

HAWKINS FIELD, MS, United States (KHKS) 32-20N 090-13W 108M
Sep 21, 2020 - 01:53 AM EDT / 2020.09.21 0553 UTC
Wind: from the E (090 degrees) at 10 MPH (9 KT) gusting to 18 MPH (16 KT):0
Visibility: 10 mile(s):0
Sky conditions: overcast
Temperature: 72.0 F (22.2 C)
Dew Point: 55.9 F (13.3 C)
Relative Humidity: 57%
Pressure (altimeter): 30.13 in. Hg (1020 hPa)
Pressure tendency: 0.01 inches (0.3 hPa) lower than three hours ago
ob: KHKS 210553Z AUTO 09009G16KT 10SM OVC050 22/13 A3013 RMK AO2 SLP197 T02220133 10250 20222 402830183 58003
cycle: 6

Station Type Date Time Source
KHKS TAF 2020/09/21 06:36 UTC NOAA

TAF KHKS 210534Z 2106/2206 09012KT P6SM BKN060
FM211300 10012G19KT P6SM VCSH OVC027
FM211500 10015G22KT P6SM VCSH OVC015
FM211800 10010G20KT P6SM OVC035
FM220000 10011KT P6SM OVC060

Example: see airport list